sensor_id;sensor_type;location;lat;lon;timestamp;pressure;altitude;pressure_sealevel;temperature;humidity
51849;BME280;38952;51.090;-1.832;2024-03-07T00:02:19;100959.69;;;5.75;100.00
51849;BME280;38952;51.090;-1.832;2024-03-07T00:04:48;100954.88;;;5.77;100.00
51849;BME280;38952;51.090;-1.832;2024-03-07T00:07:16;100937.97;;;5.75;100.00
51849;BME280;38952;51.090;-1.832;2024-03-07T00:09:42;100940.84;;;5.81;100.00
51849;BME280;38952;51.090;-1.832;2024-03-07T00:12:10;100925.91;;;5.71;100.00
51849;BME280;38952;51.090;-1.832;2024-03-07T00:14:35;100930.88;;;5.74;100.00
51849;BME280;38952;51.090;-1.832;2024-03-07T00:17:01;100947.50;;;5.85;100.00
51849;BME280;38952;51.090;-1.832;2024-03-07T00:19:31;100934.31;;;5.63;100.00
51849;BME280;38952;51.090;-1.832;2024-03-07T00:21:56;100932.63;;;5.37;100.00
51849;BME280;38952;51.090;-1.832;2024-03-07T00:24:25;100941.75;;;5.11;100.00
51849;BME280;38952;51.090;-1.832;2024-03-07T00:26:52;100931.47;;;4.81;100.00
51849;BME280;38952;51.090;-1.832;2024-03-07T00:29:18;100934.06;;;4.62;100.00
51849;BME280;38952;51.090;-1.832;2024-03-07T00:31:45;100943.03;;;4.49;100.00
51849;BME280;38952;51.090;-1.832;2024-03-07T00:34:12;100921.25;;;4.17;100.00
51849;BME280;38952;51.090;-1.832;2024-03-07T00:36:40;100923.78;;;4.06;100.00
51849;BME280;38952;51.090;-1.832;2024-03-07T00:39:05;100937.94;;;4.01;100.00
51849;BME280;38952;51.090;-1.832;2024-03-07T00:41:34;100906.75;;;3.72;100.00
51849;BME280;38952;51.090;-1.832;2024-03-07T00:43:59;100935.06;;;3.76;100.00
51849;BME280;38952;51.090;-1.832;2024-03-07T00:46:25;100926.72;;;3.64;100.00
51849;BME280;38952;51.090;-1.832;2024-03-07T00:48:50;100931.94;;;3.52;100.00
51849;BME280;38952;51.090;-1.832;2024-03-07T00:51:16;100925.66;;;3.52;100.00
51849;BME280;38952;51.090;-1.832;2024-03-07T00:53:41;100933.81;;;3.58;100.00
51849;BME280;38952;51.090;-1.832;2024-03-07T00:56:07;100914.88;;;3.58;100.00
51849;BME280;38952;51.090;-1.832;2024-03-07T00:58:35;100927.13;;;3.81;100.00
51849;BME280;38952;51.090;-1.832;2024-03-07T01:01:01;100929.22;;;3.79;100.00
51849;BME280;38952;51.090;-1.832;2024-03-07T01:03:26;100930.06;;;3.73;100.00
51849;BME280;38952;51.090;-1.832;2024-03-07T01:05:52;100925.88;;;3.63;100.00
51849;BME280;38952;51.090;-1.832;2024-03-07T01:08:18;100925.03;;;3.56;100.00
51849;BME280;38952;51.090;-1.832;2024-03-07T01:10:43;100918.59;;;3.44;100.00
51849;BME280;38952;51.090;-1.832;2024-03-07T01:13:11;100910.47;;;3.30;100.00
51849;BME280;38952;51.090;-1.832;2024-03-07T01:15:45;100922.75;;;3.40;100.00
51849;BME280;38952;51.090;-1.832;2024-03-07T01:18:10;100918.81;;;3.49;100.00
51849;BME280;38952;51.090;-1.832;2024-03-07T01:20:36;100924.66;;;3.59;100.00
51849;BME280;38952;51.090;-1.832;2024-03-07T01:23:05;100916.72;;;3.64;100.00
51849;BME280;38952;51.090;-1.832;2024-03-07T01:25:30;100906.34;;;3.61;100.00
51849;BME280;38952;51.090;-1.832;2024-03-07T01:27:59;100903.22;;;3.71;100.00
51849;BME280;38952;51.090;-1.832;2024-03-07T01:30:25;100910.06;;;3.74;100.00
51849;BME280;38952;51.090;-1.832;2024-03-07T01:32:53;100900.09;;;3.67;100.00
51849;BME280;38952;51.090;-1.832;2024-03-07T01:35:19;100907.56;;;3.72;100.00
51849;BME280;38952;51.090;-1.832;2024-03-07T01:37:45;100905.31;;;3.62;100.00
51849;BME280;38952;51.090;-1.832;2024-03-07T01:40:10;100897.19;;;3.49;100.00
51849;BME280;38952;51.090;-1.832;2024-03-07T01:42:40;100904.06;;;3.45;100.00
51849;BME280;38952;51.090;-1.832;2024-03-07T01:45:08;100903.63;;;3.35;100.00
51849;BME280;38952;51.090;-1.832;2024-03-07T01:47:35;100897.59;;;3.26;100.00
51849;BME280;38952;51.090;-1.832;2024-03-07T01:50:02;100895.28;;;3.16;100.00
51849;BME280;38952;51.090;-1.832;2024-03-07T01:52:29;100882.78;;;3.08;100.00
51849;BME280;38952;51.090;-1.832;2024-03-07T01:54:57;100903.78;;;3.06;100.00
51849;BME280;38952;51.090;-1.832;2024-03-07T01:57:23;100893.38;;;2.96;100.00
51849;BME280;38952;51.090;-1.832;2024-03-07T01:59:49;100883.78;;;2.87;100.00
51849;BME280;38952;51.090;-1.832;2024-03-07T02:02:16;100882.91;;;2.80;100.00
51849;BME280;38952;51.090;-1.832;2024-03-07T02:04:42;100882.91;;;2.80;100.00
51849;BME280;38952;51.090;-1.832;2024-03-07T02:07:08;100883.97;;;2.79;100.00
51849;BME280;38952;51.090;-1.832;2024-03-07T02:09:37;100870.41;;;2.66;100.00
51849;BME280;38952;51.090;-1.832;2024-03-07T02:12:05;100875.81;;;2.66;100.00
51849;BME280;38952;51.090;-1.832;2024-03-07T02:14:31;100873.50;;;2.62;100.00
51849;BME280;38952;51.090;-1.832;2024-03-07T02:16:56;100873.09;;;2.59;100.00
51849;BME280;38952;51.090;-1.832;2024-03-07T02:19:22;100883.91;;;2.66;100.00
51849;BME280;38952;51.090;-1.832;2024-03-07T02:21:48;100870.59;;;2.57;100.00
51849;BME280;38952;51.090;-1.832;2024-03-07T02:24:14;100861.84;;;2.55;100.00
51849;BME280;38952;51.090;-1.832;2024-03-07T02:26:40;100870.16;;;2.54;100.00
51849;BME280;38952;51.090;-1.832;2024-03-07T02:29:08;100862.06;;;2.47;100.00
51849;BME280;38952;51.090;-1.832;2024-03-07T02:31:35;100869.13;;;2.55;100.00
51849;BME280;38952;51.090;-1.832;2024-03-07T02:34:03;100867.66;;;2.52;100.00
51849;BME280;38952;51.090;-1.832;2024-03-07T02:36:28;100850.03;;;2.56;100.00
51849;BME280;38952;51.090;-1.832;2024-03-07T02:38:54;100861.66;;;2.50;100.00
51849;BME280;38952;51.090;-1.832;2024-03-07T02:41:22;100841.06;;;2.42;100.00
51849;BME280;38952;51.090;-1.832;2024-03-07T02:43:47;100841.47;;;2.46;100.00
51849;BME280;38952;51.090;-1.832;2024-03-07T02:46:15;100858.09;;;2.43;100.00
51849;BME280;38952;51.090;-1.832;2024-03-07T02:48:41;100858.28;;;2.48;100.00
51849;BME280;38952;51.090;-1.832;2024-03-07T02:51:07;100862.47;;;2.51;100.00
51849;BME280;38952;51.090;-1.832;2024-03-07T02:53:32;100860.00;;;2.62;100.00
51849;BME280;38952;51.090;-1.832;2024-03-07T02:55:58;100849.63;;;2.59;100.00
51849;BME280;38952;51.090;-1.832;2024-03-07T02:58:26;100844.22;;;2.59;100.00
51849;BME280;38952;51.090;-1.832;2024-03-07T03:00:58;100845.06;;;2.67;100.00
51849;BME280;38952;51.090;-1.832;2024-03-07T03:03:27;100837.81;;;2.74;100.00
51849;BME280;38952;51.090;-1.832;2024-03-07T03:05:52;100847.63;;;2.88;100.00
51849;BME280;38952;51.090;-1.832;2024-03-07T03:08:18;100846.81;;;2.88;100.00
51849;BME280;38952;51.090;-1.832;2024-03-07T03:10:44;100840.13;;;2.77;100.00
51849;BME280;38952;51.090;-1.832;2024-03-07T03:13:09;100834.69;;;2.64;100.00
51849;BME280;38952;51.090;-1.832;2024-03-07T03:15:35;100838.00;;;2.59;100.00
51849;BME280;38952;51.090;-1.832;2024-03-07T03:18:03;100821.56;;;2.47;100.00
51849;BME280;38952;51.090;-1.832;2024-03-07T03:20:29;100845.25;;;2.58;100.00
51849;BME280;38952;51.090;-1.832;2024-03-07T03:23:04;100836.31;;;2.51;100.00
51849;BME280;38952;51.090;-1.832;2024-03-07T03:25:31;100837.50;;;2.42;100.00
51849;BME280;38952;51.090;-1.832;2024-03-07T03:28:01;100834.16;;;2.33;100.00
51849;BME280;38952;51.090;-1.832;2024-03-07T03:30:27;100826.63;;;2.22;100.00
51849;BME280;38952;51.090;-1.832;2024-03-07T03:32:52;100837.00;;;2.18;100.00
51849;BME280;38952;51.090;-1.832;2024-03-07T03:35:18;100836.53;;;2.08;100.00
51849;BME280;38952;51.090;-1.832;2024-03-07T03:37:45;100839.66;;;2.05;100.00
51849;BME280;38952;51.090;-1.832;2024-03-07T03:40:11;100831.50;;;1.98;100.00
51849;BME280;38952;51.090;-1.832;2024-03-07T03:42:37;100835.25;;;1.97;100.00
51849;BME280;38952;51.090;-1.832;2024-03-07T03:45:07;100821.72;;;1.90;100.00
51849;BME280;38952;51.090;-1.832;2024-03-07T03:47:35;100811.72;;;1.84;100.00
51849;BME280;38952;51.090;-1.832;2024-03-07T03:50:05;100828.13;;;1.89;100.00
51849;BME280;38952;51.090;-1.832;2024-03-07T03:52:31;100828.53;;;1.86;100.00
51849;BME280;38952;51.090;-1.832;2024-03-07T03:54:57;100826.44;;;1.82;100.00
51849;BME280;38952;51.090;-1.832;2024-03-07T03:57:24;100820.59;;;1.78;100.00
51849;BME280;38952;51.090;-1.832;2024-03-07T03:59:49;100826.38;;;1.75;100.00
51849;BME280;38952;51.090;-1.832;2024-03-07T04:02:15;100820.56;;;1.71;100.00
51849;BME280;38952;51.090;-1.832;2024-03-07T04:04:42;100805.59;;;1.62;100.00
51849;BME280;38952;51.090;-1.832;2024-03-07T04:07:09;100815.91;;;1.59;100.00
51849;BME280;38952;51.090;-1.832;2024-03-07T04:09:34;100828.38;;;1.60;100.00
51849;BME280;38952;51.090;-1.832;2024-03-07T04:12:00;100818.56;;;1.52;100.00
51849;BME280;38952;51.090;-1.832;2024-03-07T04:14:25;100823.78;;;1.53;100.00
51849;BME280;38952;51.090;-1.832;2024-03-07T04:16:51;100823.78;;;1.53;100.00
51849;BME280;38952;51.090;-1.832;2024-03-07T04:19:17;100831.28;;;1.58;100.00
51849;BME280;38952;51.090;-1.832;2024-03-07T04:21:45;100839.19;;;1.66;100.00
51849;BME280;38952;51.090;-1.832;2024-03-07T04:24:11;100827.63;;;1.72;100.00
51849;BME280;38952;51.090;-1.832;2024-03-07T04:26:37;100821.00;;;1.75;100.00
51849;BME280;38952;51.090;-1.832;2024-03-07T04:29:03;100825.22;;;1.84;100.00
51849;BME280;38952;51.090;-1.832;2024-03-07T04:31:28;100820.44;;;1.80;100.00
51849;BME280;38952;51.090;-1.832;2024-03-07T04:33:54;100835.22;;;1.90;100.00
51849;BME280;38952;51.090;-1.832;2024-03-07T04:36:19;100816.28;;;1.84;100.00
51849;BME280;38952;51.090;-1.832;2024-03-07T04:38:45;100821.47;;;1.85;100.00
51849;BME280;38952;51.090;-1.832;2024-03-07T04:41:11;100814.84;;;1.81;100.00
51849;BME280;38952;51.090;-1.832;2024-03-07T04:43:37;100819.81;;;1.84;100.00
51849;BME280;38952;51.090;-1.832;2024-03-07T04:46:03;100815.41;;;1.77;100.00
51849;BME280;38952;51.090;-1.832;2024-03-07T04:48:30;100827.66;;;1.79;100.00
51849;BME280;38952;51.090;-1.832;2024-03-07T04:50:56;100803.91;;;1.61;100.00
51849;BME280;38952;51.090;-1.832;2024-03-07T04:53:22;100813.22;;;1.59;100.00
51849;BME280;38952;51.090;-1.832;2024-03-07T04:55:47;100821.72;;;1.55;100.00
51849;BME280;38952;51.090;-1.832;2024-03-07T04:58:13;100820.59;;;1.43;100.00
51849;BME280;38952;51.090;-1.832;2024-03-07T05:00:38;100833.28;;;1.49;100.00
51849;BME280;38952;51.090;-1.832;2024-03-07T05:03:04;100822.44;;;1.43;100.00
51849;BME280;38952;51.090;-1.832;2024-03-07T05:05:30;100815.34;;;1.35;100.00
51849;BME280;38952;51.090;-1.832;2024-03-07T05:07:55;100809.84;;;1.21;100.00
51849;BME280;38952;51.090;-1.832;2024-03-07T05:10:21;100802.34;;;1.17;100.00
51849;BME280;38952;51.090;-1.832;2024-03-07T05:12:46;100815.88;;;1.24;100.00
51849;BME280;38952;51.090;-1.832;2024-03-07T05:15:12;100826.50;;;1.32;100.00
51849;BME280;38952;51.090;-1.832;2024-03-07T05:17:38;100827.94;;;1.28;100.00
51849;BME280;38952;51.090;-1.832;2024-03-07T05:20:05;100832.50;;;1.27;100.00
51849;BME280;38952;51.090;-1.832;2024-03-07T05:22:36;100831.00;;;1.25;100.00
51849;BME280;38952;51.090;-1.832;2024-03-07T05:25:06;100829.81;;;1.27;100.00
51849;BME280;38952;51.090;-1.832;2024-03-07T05:27:32;100826.91;;;1.29;100.00
51849;BME280;38952;51.090;-1.832;2024-03-07T05:29:58;100824.06;;;1.37;100.00
51849;BME280;38952;51.090;-1.832;2024-03-07T05:32:25;100819.91;;;1.34;100.00
51849;BME280;38952;51.090;-1.832;2024-03-07T05:34:51;100825.09;;;1.36;100.00
51849;BME280;38952;51.090;-1.832;2024-03-07T05:37:19;100825.31;;;1.34;100.00
51849;BME280;38952;51.090;-1.832;2024-03-07T05:39:49;100813.66;;;1.34;100.00
51849;BME280;38952;51.090;-1.832;2024-03-07T05:42:14;100819.59;;;1.51;100.00
51849;BME280;38952;51.090;-1.832;2024-03-07T05:44:41;100822.72;;;1.83;100.00
51849;BME280;38952;51.090;-1.832;2024-03-07T05:47:07;100802.47;;;2.00;100.00
51849;BME280;38952;51.090;-1.832;2024-03-07T05:49:33;100812.13;;;2.23;100.00
51849;BME280;38952;51.090;-1.832;2024-03-07T05:51:58;100819.66;;;2.41;100.00
51849;BME280;38952;51.090;-1.832;2024-03-07T05:54:26;100815.34;;;2.53;100.00
51849;BME280;38952;51.090;-1.832;2024-03-07T05:56:53;100828.50;;;2.76;100.00
51849;BME280;38952;51.090;-1.832;2024-03-07T05:59:20;100818.94;;;2.81;100.00
51849;BME280;38952;51.090;-1.832;2024-03-07T06:01:46;100825.63;;;2.98;100.00
51849;BME280;38952;51.090;-1.832;2024-03-07T06:04:12;100822.06;;;3.11;100.00
51849;BME280;38952;51.090;-1.832;2024-03-07T06:06:38;100827.91;;;3.21;100.00
51849;BME280;38952;51.090;-1.832;2024-03-07T06:09:06;100818.16;;;3.20;100.00
51849;BME280;38952;51.090;-1.832;2024-03-07T06:11:39;100800.69;;;3.16;100.00
51849;BME280;38952;51.090;-1.832;2024-03-07T06:14:07;100813.38;;;3.29;100.00
51849;BME280;38952;51.090;-1.832;2024-03-07T06:16:35;100791.53;;;3.17;100.00
51849;BME280;38952;51.090;-1.832;2024-03-07T06:19:02;100821.91;;;3.39;100.00
51849;BME280;38952;51.090;-1.832;2024-03-07T06:21:28;100818.53;;;3.37;100.00
51849;BME280;38952;51.090;-1.832;2024-03-07T06:23:57;100808.16;;;3.41;100.00
51849;BME280;38952;51.090;-1.832;2024-03-07T06:26:46;100816.47;;;3.46;100.00
51849;BME280;38952;51.090;-1.832;2024-03-07T06:29:19;100809.19;;;3.46;100.00
51849;BME280;38952;51.090;-1.832;2024-03-07T06:31:49;100797.34;;;3.41;100.00
51849;BME280;38952;51.090;-1.832;2024-03-07T06:34:22;100774.69;;;3.42;100.00
51849;BME280;38952;51.090;-1.832;2024-03-07T06:36:48;100774.25;;;3.52;100.00
51849;BME280;38952;51.090;-1.832;2024-03-07T06:39:13;100823.28;;;3.82;100.00
51849;BME280;38952;51.090;-1.832;2024-03-07T06:41:39;100805.81;;;3.78;100.00
51849;BME280;38952;51.090;-1.832;2024-03-07T06:44:05;100824.31;;;3.94;100.00
51849;BME280;38952;51.090;-1.832;2024-03-07T06:46:30;100797.25;;;3.81;100.00
51849;BME280;38952;51.090;-1.832;2024-03-07T06:48:57;100820.13;;;3.98;100.00
51849;BME280;38952;51.090;-1.832;2024-03-07T06:51:23;100827.16;;;4.13;100.00
51849;BME280;38952;51.090;-1.832;2024-03-07T06:53:50;100829.00;;;4.19;100.00
51849;BME280;38952;51.090;-1.832;2024-03-07T06:56:15;100817.56;;;4.17;100.00
51849;BME280;38952;51.090;-1.832;2024-03-07T06:58:44;100801.56;;;4.09;100.00
51849;BME280;38952;51.090;-1.832;2024-03-07T07:01:20;100824.00;;;4.29;100.00
51849;BME280;38952;51.090;-1.832;2024-03-07T07:03:46;100833.09;;;4.42;100.00
51849;BME280;38952;51.090;-1.832;2024-03-07T07:06:12;100804.59;;;4.32;100.00
51849;BME280;38952;51.090;-1.832;2024-03-07T07:08:38;100810.81;;;4.40;100.00
51849;BME280;38952;51.090;-1.832;2024-03-07T07:11:06;100834.63;;;4.63;100.00
51849;BME280;38952;51.090;-1.832;2024-03-07T07:13:45;100832.13;;;4.68;100.00
51849;BME280;38952;51.090;-1.832;2024-03-07T07:16:20;100838.16;;;4.70;100.00
51849;BME280;38952;51.090;-1.832;2024-03-07T07:18:49;100820.47;;;4.67;100.00
51849;BME280;38952;51.090;-1.832;2024-03-07T07:21:17;100807.75;;;4.68;100.00
51849;BME280;38952;51.090;-1.832;2024-03-07T07:23:49;100835.50;;;4.95;100.00
51849;BME280;38952;51.090;-1.832;2024-03-07T07:26:14;100836.09;;;5.04;100.00
51849;BME280;38952;51.090;-1.832;2024-03-07T07:28:40;100838.72;;;5.11;100.00
51849;BME280;38952;51.090;-1.832;2024-03-07T07:31:06;100835.78;;;5.12;100.00
51849;BME280;38952;51.090;-1.832;2024-03-07T07:33:33;100820.28;;;5.26;100.00
51849;BME280;38952;51.090;-1.832;2024-03-07T07:35:59;100817.25;;;5.34;100.00
51849;BME280;38952;51.090;-1.832;2024-03-07T07:38:25;100827.03;;;5.42;100.00
51849;BME280;38952;51.090;-1.832;2024-03-07T07:40:51;100833.59;;;5.53;100.00
51849;BME280;38952;51.090;-1.832;2024-03-07T07:43:17;100831.09;;;5.51;100.00
51849;BME280;38952;51.090;-1.832;2024-03-07T07:45:43;100828.88;;;5.41;100.00
51849;BME280;38952;51.090;-1.832;2024-03-07T07:48:08;100824.22;;;5.30;100.00
51849;BME280;38952;51.090;-1.832;2024-03-07T07:50:34;100838.69;;;5.42;100.00
51849;BME280;38952;51.090;-1.832;2024-03-07T07:52:59;100835.72;;;5.51;100.00
51849;BME280;38952;51.090;-1.832;2024-03-07T07:55:29;100829.16;;;5.58;100.00
51849;BME280;38952;51.090;-1.832;2024-03-07T07:57:59;100827.44;;;5.64;100.00
51849;BME280;38952;51.090;-1.832;2024-03-07T08:00:27;100827.59;;;5.69;100.00
51849;BME280;38952;51.090;-1.832;2024-03-07T08:03:05;100830.69;;;5.73;100.00
51849;BME280;38952;51.090;-1.832;2024-03-07T08:05:39;100820.84;;;5.79;100.00
51849;BME280;38952;51.090;-1.832;2024-03-07T08:08:06;100827.63;;;5.88;100.00
51849;BME280;38952;51.090;-1.832;2024-03-07T08:10:34;100810.00;;;5.97;100.00
51849;BME280;38952;51.090;-1.832;2024-03-07T08:13:01;100816.06;;;6.18;100.00
51849;BME280;38952;51.090;-1.832;2024-03-07T08:15:28;100805.91;;;6.25;100.00
51849;BME280;38952;51.090;-1.832;2024-03-07T08:17:55;100811.50;;;6.30;100.00
51849;BME280;38952;51.090;-1.832;2024-03-07T08:20:22;100797.47;;;6.33;100.00
51849;BME280;38952;51.090;-1.832;2024-03-07T08:22:49;100802.72;;;6.46;100.00
51849;BME280;38952;51.090;-1.832;2024-03-07T08:25:20;100794.25;;;6.55;100.00
51849;BME280;38952;51.090;-1.832;2024-03-07T08:27:48;100799.50;;;6.68;100.00
51849;BME280;38952;51.090;-1.832;2024-03-07T08:30:14;100800.03;;;6.89;100.00
51849;BME280;38952;51.090;-1.832;2024-03-07T08:35:06;100790.31;;;7.59;100.00
51849;BME280;38952;51.090;-1.832;2024-03-07T08:38:02;100799.06;;;8.37;100.00
51849;BME280;38952;51.090;-1.832;2024-03-07T08:40:28;100794.56;;;8.31;98.13
51849;BME280;38952;51.090;-1.832;2024-03-07T08:42:58;100787.34;;;8.25;97.21
51849;BME280;38952;51.090;-1.832;2024-03-07T08:45:24;100784.09;;;8.11;96.72
51849;BME280;38952;51.090;-1.832;2024-03-07T08:47:51;100786.09;;;8.15;96.73
51849;BME280;38952;51.090;-1.832;2024-03-07T08:50:17;100775.16;;;8.27;96.52
51849;BME280;38952;51.090;-1.832;2024-03-07T08:52:44;100771.19;;;8.47;95.81
51849;BME280;38952;51.090;-1.832;2024-03-07T08:55:12;100781.59;;;8.79;94.71
51849;BME280;38952;51.090;-1.832;2024-03-07T08:57:42;100786.88;;;9.14;94.15
51849;BME280;38952;51.090;-1.832;2024-03-07T09:00:09;100782.97;;;9.83;92.86
51849;BME280;38952;51.090;-1.832;2024-03-07T09:02:38;100761.09;;;11.84;84.57
51849;BME280;38952;51.090;-1.832;2024-03-07T09:05:05;100773.66;;;12.44;75.74
51849;BME280;38952;51.090;-1.832;2024-03-07T09:07:31;100780.69;;;12.14;73.94
51849;BME280;38952;51.090;-1.832;2024-03-07T09:09:57;100788.16;;;11.81;75.12
51849;BME280;38952;51.090;-1.832;2024-03-07T09:12:22;100775.06;;;11.88;75.19
51849;BME280;38952;51.090;-1.832;2024-03-07T09:14:51;100774.72;;;12.32;74.64
51849;BME280;38952;51.090;-1.832;2024-03-07T09:17:17;100772.31;;;12.46;70.44
51849;BME280;38952;51.090;-1.832;2024-03-07T09:19:43;100772.09;;;12.63;70.48
51849;BME280;38952;51.090;-1.832;2024-03-07T09:22:08;100766.03;;;12.56;69.71
51849;BME280;38952;51.090;-1.832;2024-03-07T09:24:34;100764.63;;;12.48;68.73
51849;BME280;38952;51.090;-1.832;2024-03-07T09:27:00;100741.00;;;12.32;67.96
51849;BME280;38952;51.090;-1.832;2024-03-07T09:29:26;100761.88;;;12.48;67.82
51849;BME280;38952;51.090;-1.832;2024-03-07T09:31:53;100766.59;;;12.63;67.72
51849;BME280;38952;51.090;-1.832;2024-03-07T09:34:19;100757.03;;;13.43;66.30
51849;BME280;38952;51.090;-1.832;2024-03-07T09:36:48;100763.56;;;13.73;63.21
51849;BME280;38952;51.090;-1.832;2024-03-07T09:39:17;100766.53;;;14.97;62.76
51849;BME280;38952;51.090;-1.832;2024-03-07T09:41:42;100761.72;;;17.15;56.53
51849;BME280;38952;51.090;-1.832;2024-03-07T09:44:15;100762.84;;;20.47;48.88
51849;BME280;38952;51.090;-1.832;2024-03-07T09:46:55;100763.00;;;21.55;43.91
51849;BME280;38952;51.090;-1.832;2024-03-07T09:49:21;100754.97;;;23.40;40.99
51849;BME280;38952;51.090;-1.832;2024-03-07T09:51:51;100759.44;;;24.52;37.63
51849;BME280;38952;51.090;-1.832;2024-03-07T09:54:20;100755.47;;;24.53;37.66
51849;BME280;38952;51.090;-1.832;2024-03-07T09:56:50;100745.22;;;24.57;36.96
51849;BME280;38952;51.090;-1.832;2024-03-07T09:59:19;100748.47;;;26.79;34.97
51849;BME280;38952;51.090;-1.832;2024-03-07T10:01:47;100742.94;;;29.51;30.63
51849;BME280;38952;51.090;-1.832;2024-03-07T10:04:16;100734.56;;;30.84;27.63
51849;BME280;38952;51.090;-1.832;2024-03-07T10:06:46;100734.72;;;27.83;28.75
51849;BME280;38952;51.090;-1.832;2024-03-07T10:09:12;100725.47;;;25.83;30.68
51849;BME280;38952;51.090;-1.832;2024-03-07T10:11:41;100733.81;;;25.19;30.63
51849;BME280;38952;51.090;-1.832;2024-03-07T10:14:07;100727.66;;;23.33;32.01
51849;BME280;38952;51.090;-1.832;2024-03-07T10:16:33;100720.25;;;21.60;34.36
51849;BME280;38952;51.090;-1.832;2024-03-07T10:18:58;100723.34;;;20.85;35.27
51849;BME280;38952;51.090;-1.832;2024-03-07T10:21:26;100712.16;;;21.20;35.94
51849;BME280;38952;51.090;-1.832;2024-03-07T10:24:04;100708.25;;;20.16;36.79
51849;BME280;38952;51.090;-1.832;2024-03-07T10:26:33;100713.97;;;20.02;36.34
51849;BME280;38952;51.090;-1.832;2024-03-07T10:28:59;100698.81;;;18.23;38.32
51849;BME280;38952;51.090;-1.832;2024-03-07T10:31:29;100706.44;;;17.01;40.50
51849;BME280;38952;51.090;-1.832;2024-03-07T10:34:01;100707.75;;;16.85;42.86
51849;BME280;38952;51.090;-1.832;2024-03-07T10:36:28;100707.94;;;17.54;42.34
51849;BME280;38952;51.090;-1.832;2024-03-07T10:38:57;100703.03;;;18.07;42.57
51849;BME280;38952;51.090;-1.832;2024-03-07T10:41:49;100702.41;;;20.79;40.67
51849;BME280;38952;51.090;-1.832;2024-03-07T10:44:23;100696.97;;;25.17;33.17
51849;BME280;38952;51.090;-1.832;2024-03-07T10:46:52;100690.56;;;24.19;32.84
51849;BME280;38952;51.090;-1.832;2024-03-07T10:49:19;100694.66;;;23.02;34.45
51849;BME280;38952;51.090;-1.832;2024-03-07T10:57:25;100695.28;;;28.60;29.39
51849;BME280;38952;51.090;-1.832;2024-03-07T11:00:02;100697.22;;;31.62;25.03
51849;BME280;38952;51.090;-1.832;2024-03-07T11:02:49;100689.09;;;31.25;23.88
51849;BME280;38952;51.090;-1.832;2024-03-07T11:05:18;100675.41;;;28.76;25.16
51849;BME280;38952;51.090;-1.832;2024-03-07T11:07:44;100686.16;;;25.64;26.96
51849;BME280;38952;51.090;-1.832;2024-03-07T11:10:10;100670.78;;;22.59;29.63
51849;BME280;38952;51.090;-1.832;2024-03-07T11:12:38;100671.53;;;20.80;32.47
51849;BME280;38952;51.090;-1.832;2024-03-07T11:15:07;100661.41;;;19.65;34.65
51849;BME280;38952;51.090;-1.832;2024-03-07T11:17:41;100652.00;;;18.13;36.91
51849;BME280;38952;51.090;-1.832;2024-03-07T11:22:46;100654.25;;;17.14;39.52
51849;BME280;38952;51.090;-1.832;2024-03-07T11:25:12;100647.47;;;16.73;40.43
51849;BME280;38952;51.090;-1.832;2024-03-07T11:27:57;100637.88;;;16.18;41.45
51849;BME280;38952;51.090;-1.832;2024-03-07T11:30:23;100637.84;;;15.56;42.72
51849;BME280;38952;51.090;-1.832;2024-03-07T11:32:50;100629.94;;;15.01;44.56
51849;BME280;38952;51.090;-1.832;2024-03-07T11:35:19;100637.03;;;14.78;45.38
51849;BME280;38952;51.090;-1.832;2024-03-07T11:37:57;100636.28;;;14.67;46.23
51849;BME280;38952;51.090;-1.832;2024-03-07T11:42:51;100592.19;;;13.98;46.25
51849;BME280;38952;51.090;-1.832;2024-03-07T11:45:18;100623.00;;;13.95;46.79
51849;BME280;38952;51.090;-1.832;2024-03-07T11:47:51;100623.06;;;14.69;46.77
51849;BME280;38952;51.090;-1.832;2024-03-07T11:50:29;100628.47;;;17.74;44.16
51849;BME280;38952;51.090;-1.832;2024-03-07T11:53:00;100628.75;;;22.09;36.23
51849;BME280;38952;51.090;-1.832;2024-03-07T11:55:26;100618.50;;;23.23;32.34
51849;BME280;38952;51.090;-1.832;2024-03-07T11:57:53;100610.88;;;22.53;32.94
51849;BME280;38952;51.090;-1.832;2024-03-07T12:00:19;100611.50;;;21.95;33.05
51849;BME280;38952;51.090;-1.832;2024-03-07T12:02:48;100605.63;;;20.81;34.31
51849;BME280;38952;51.090;-1.832;2024-03-07T12:05:14;100600.47;;;20.18;35.18
51849;BME280;38952;51.090;-1.832;2024-03-07T12:07:41;100594.03;;;21.65;35.45
51849;BME280;38952;51.090;-1.832;2024-03-07T12:10:07;100587.03;;;24.00;30.16
51849;BME280;38952;51.090;-1.832;2024-03-07T12:12:33;100591.41;;;22.65;31.92
51849;BME280;38952;51.090;-1.832;2024-03-07T12:14:59;100568.91;;;22.16;33.16
51849;BME280;38952;51.090;-1.832;2024-03-07T12:17:25;100584.94;;;24.66;29.80
51849;BME280;38952;51.090;-1.832;2024-03-07T12:19:51;100572.88;;;23.93;30.00
51849;BME280;38952;51.090;-1.832;2024-03-07T12:22:19;100565.56;;;22.22;30.97
51849;BME280;38952;51.090;-1.832;2024-03-07T12:24:59;100558.09;;;22.69;32.53
51849;BME280;38952;51.090;-1.832;2024-03-07T12:27:27;100561.25;;;23.91;29.95
51849;BME280;38952;51.090;-1.832;2024-03-07T12:29:53;100547.81;;;23.31;30.51
51849;BME280;38952;51.090;-1.832;2024-03-07T12:32:19;100548.16;;;24.96;30.17
51849;BME280;38952;51.090;-1.832;2024-03-07T12:34:46;100542.97;;;28.20;27.20
51849;BME280;38952;51.090;-1.832;2024-03-07T12:37:13;100535.34;;;28.20;24.19
51849;BME280;38952;51.090;-1.832;2024-03-07T12:39:45;100528.81;;;25.22;27.08
51849;BME280;38952;51.090;-1.832;2024-03-07T12:42:18;100525.69;;;26.38;27.27
51849;BME280;38952;51.090;-1.832;2024-03-07T12:44:45;100525.50;;;29.27;25.60
51849;BME280;38952;51.090;-1.832;2024-03-07T12:47:15;100521.63;;;32.98;20.72
51849;BME280;38952;51.090;-1.832;2024-03-07T12:49:44;100516.38;;;31.37;21.75
51849;BME280;38952;51.090;-1.832;2024-03-07T12:52:11;100505.03;;;33.00;20.57
51849;BME280;38952;51.090;-1.832;2024-03-07T12:54:40;100507.31;;;29.84;21.47
51849;BME280;38952;51.090;-1.832;2024-03-07T12:57:10;100495.63;;;26.15;24.73